sensor_id;sensor_type;location;lat;lon;timestamp;P1;durP1;ratioP1;P2;durP2;ratioP2
21878;SDS011;27908;42.708;23.278;2023-08-17T00:01:19;11.30;;;5.73;;
21878;SDS011;27908;42.708;23.278;2023-08-17T00:03:44;12.80;;;5.80;;
21878;SDS011;27908;42.708;23.278;2023-08-17T00:06:10;12.33;;;5.70;;
21878;SDS011;27908;42.708;23.278;2023-08-17T00:08:35;12.17;;;5.83;;
21878;SDS011;27908;42.708;23.278;2023-08-17T00:11:01;10.93;;;6.03;;
21878;SDS011;27908;42.708;23.278;2023-08-17T00:13:26;13.70;;;5.75;;
21878;SDS011;27908;42.708;23.278;2023-08-17T00:15:52;12.23;;;5.77;;
21878;SDS011;27908;42.708;23.278;2023-08-17T00:18:17;11.93;;;5.77;;
21878;SDS011;27908;42.708;23.278;2023-08-17T00:20:42;14.67;;;5.27;;
21878;SDS011;27908;42.708;23.278;2023-08-17T00:23:09;9.77;;;5.43;;
21878;SDS011;27908;42.708;23.278;2023-08-17T00:25:35;11.18;;;5.53;;
21878;SDS011;27908;42.708;23.278;2023-08-17T00:28:01;11.47;;;5.20;;
21878;SDS011;27908;42.708;23.278;2023-08-17T00:30:26;9.88;;;5.20;;
21878;SDS011;27908;42.708;23.278;2023-08-17T00:32:52;12.03;;;5.00;;
21878;SDS011;27908;42.708;23.278;2023-08-17T00:35:17;10.23;;;5.00;;
21878;SDS011;27908;42.708;23.278;2023-08-17T00:37:42;12.10;;;4.90;;
21878;SDS011;27908;42.708;23.278;2023-08-17T00:40:08;14.57;;;4.68;;
21878;SDS011;27908;42.708;23.278;2023-08-17T00:42:34;13.40;;;4.90;;
21878;SDS011;27908;42.708;23.278;2023-08-17T00:44:59;12.85;;;4.93;;
21878;SDS011;27908;42.708;23.278;2023-08-17T00:47:25;11.40;;;4.70;;
21878;SDS011;27908;42.708;23.278;2023-08-17T00:49:51;13.90;;;4.70;;
21878;SDS011;27908;42.708;23.278;2023-08-17T00:52:16;10.73;;;5.13;;
21878;SDS011;27908;42.708;23.278;2023-08-17T00:54:42;14.13;;;4.77;;
21878;SDS011;27908;42.708;23.278;2023-08-17T00:57:08;11.02;;;4.80;;
21878;SDS011;27908;42.708;23.278;2023-08-17T00:59:34;13.07;;;6.30;;
21878;SDS011;27908;42.708;23.278;2023-08-17T01:02:00;13.50;;;5.03;;
21878;SDS011;27908;42.708;23.278;2023-08-17T01:04:26;10.13;;;5.03;;
21878;SDS011;27908;42.708;23.278;2023-08-17T01:06:52;10.23;;;4.37;;
21878;SDS011;27908;42.708;23.278;2023-08-17T01:09:17;10.10;;;4.43;;
21878;SDS011;27908;42.708;23.278;2023-08-17T01:14:28;9.77;;;4.65;;
21878;SDS011;27908;42.708;23.278;2023-08-17T01:17:10;10.93;;;4.80;;
21878;SDS011;27908;42.708;23.278;2023-08-17T01:19:40;9.90;;;4.90;;
21878;SDS011;27908;42.708;23.278;2023-08-17T01:22:08;14.73;;;4.90;;
21878;SDS011;27908;42.708;23.278;2023-08-17T01:24:36;10.20;;;4.57;;
21878;SDS011;27908;42.708;23.278;2023-08-17T01:27:01;9.33;;;4.50;;
21878;SDS011;27908;42.708;23.278;2023-08-17T01:29:27;13.48;;;4.80;;
21878;SDS011;27908;42.708;23.278;2023-08-17T01:31:54;13.97;;;4.33;;
21878;SDS011;27908;42.708;23.278;2023-08-17T01:35:01;12.55;;;4.47;;
21878;SDS011;27908;42.708;23.278;2023-08-17T01:37:34;11.13;;;4.00;;
21878;SDS011;27908;42.708;23.278;2023-08-17T01:40:03;12.07;;;4.20;;
21878;SDS011;27908;42.708;23.278;2023-08-17T01:42:30;11.13;;;5.38;;
21878;SDS011;27908;42.708;23.278;2023-08-17T01:44:56;9.10;;;4.10;;
21878;SDS011;27908;42.708;23.278;2023-08-17T01:47:22;10.60;;;5.10;;
21878;SDS011;27908;42.708;23.278;2023-08-17T01:49:47;9.63;;;4.47;;
21878;SDS011;27908;42.708;23.278;2023-08-17T01:52:13;12.27;;;4.55;;
21878;SDS011;27908;42.708;23.278;2023-08-17T01:54:39;11.17;;;4.20;;
21878;SDS011;27908;42.708;23.278;2023-08-17T01:57:04;8.03;;;4.07;;
21878;SDS011;27908;42.708;23.278;2023-08-17T01:59:30;9.17;;;4.40;;
21878;SDS011;27908;42.708;23.278;2023-08-17T02:01:55;10.68;;;4.25;;
21878;SDS011;27908;42.708;23.278;2023-08-17T02:04:21;10.47;;;4.30;;
21878;SDS011;27908;42.708;23.278;2023-08-17T02:06:46;8.80;;;4.25;;
21878;SDS011;27908;42.708;23.278;2023-08-17T02:09:12;10.27;;;4.30;;
21878;SDS011;27908;42.708;23.278;2023-08-17T02:11:37;11.53;;;4.30;;
21878;SDS011;27908;42.708;23.278;2023-08-17T02:14:03;12.20;;;4.53;;
21878;SDS011;27908;42.708;23.278;2023-08-17T02:16:28;12.93;;;4.60;;
21878;SDS011;27908;42.708;23.278;2023-08-17T02:18:54;10.87;;;4.20;;
21878;SDS011;27908;42.708;23.278;2023-08-17T02:21:19;10.43;;;4.50;;
21878;SDS011;27908;42.708;23.278;2023-08-17T02:23:44;14.47;;;4.67;;
21878;SDS011;27908;42.708;23.278;2023-08-17T02:26:10;8.65;;;4.45;;
21878;SDS011;27908;42.708;23.278;2023-08-17T02:28:36;8.53;;;3.93;;
21878;SDS011;27908;42.708;23.278;2023-08-17T02:31:01;11.20;;;4.15;;
21878;SDS011;27908;42.708;23.278;2023-08-17T02:33:27;10.57;;;3.80;;
21878;SDS011;27908;42.708;23.278;2023-08-17T02:35:52;9.17;;;3.87;;
21878;SDS011;27908;42.708;23.278;2023-08-17T02:38:18;11.25;;;3.90;;
21878;SDS011;27908;42.708;23.278;2023-08-17T02:40:43;11.43;;;3.83;;
21878;SDS011;27908;42.708;23.278;2023-08-17T02:43:09;12.50;;;4.23;;
21878;SDS011;27908;42.708;23.278;2023-08-17T02:45:34;10.03;;;3.80;;
21878;SDS011;27908;42.708;23.278;2023-08-17T02:48:00;12.38;;;4.32;;
21878;SDS011;27908;42.708;23.278;2023-08-17T02:50:25;16.77;;;4.53;;
21878;SDS011;27908;42.708;23.278;2023-08-17T02:52:51;9.17;;;3.93;;
21878;SDS011;27908;42.708;23.278;2023-08-17T02:55:16;14.45;;;3.70;;
21878;SDS011;27908;42.708;23.278;2023-08-17T02:57:41;10.17;;;4.30;;
21878;SDS011;27908;42.708;23.278;2023-08-17T03:00:07;11.07;;;3.87;;
21878;SDS011;27908;42.708;23.278;2023-08-17T03:02:33;16.02;;;4.50;;
21878;SDS011;27908;42.708;23.278;2023-08-17T03:04:59;10.33;;;3.93;;
21878;SDS011;27908;42.708;23.278;2023-08-17T03:07:24;10.65;;;3.88;;
21878;SDS011;27908;42.708;23.278;2023-08-17T03:09:50;10.90;;;4.10;;
21878;SDS011;27908;42.708;23.278;2023-08-17T03:12:15;16.50;;;4.40;;
21878;SDS011;27908;42.708;23.278;2023-08-17T03:14:41;11.38;;;4.10;;
21878;SDS011;27908;42.708;23.278;2023-08-17T03:17:06;12.83;;;4.70;;
21878;SDS011;27908;42.708;23.278;2023-08-17T03:19:32;12.40;;;4.53;;
21878;SDS011;27908;42.708;23.278;2023-08-17T03:21:57;9.87;;;4.00;;
21878;SDS011;27908;42.708;23.278;2023-08-17T03:24:22;14.53;;;4.03;;
21878;SDS011;27908;42.708;23.278;2023-08-17T03:26:48;13.82;;;5.10;;
21878;SDS011;27908;42.708;23.278;2023-08-17T03:29:13;11.60;;;5.00;;
21878;SDS011;27908;42.708;23.278;2023-08-17T03:31:39;11.03;;;4.57;;
21878;SDS011;27908;42.708;23.278;2023-08-17T03:34:04;11.17;;;4.23;;
21878;SDS011;27908;42.708;23.278;2023-08-17T03:36:29;13.50;;;4.30;;
21878;SDS011;27908;42.708;23.278;2023-08-17T03:38:55;10.07;;;4.33;;
21878;SDS011;27908;42.708;23.278;2023-08-17T03:41:21;10.47;;;4.20;;
21878;SDS011;27908;42.708;23.278;2023-08-17T03:43:48;11.20;;;4.57;;
21878;SDS011;27908;42.708;23.278;2023-08-17T03:46:14;10.18;;;4.60;;
21878;SDS011;27908;42.708;23.278;2023-08-17T03:48:39;11.83;;;4.40;;
21878;SDS011;27908;42.708;23.278;2023-08-17T03:51:05;9.00;;;4.00;;
21878;SDS011;27908;42.708;23.278;2023-08-17T03:53:30;11.03;;;4.33;;
21878;SDS011;27908;42.708;23.278;2023-08-17T03:55:56;11.23;;;4.35;;
21878;SDS011;27908;42.708;23.278;2023-08-17T03:58:21;13.07;;;4.50;;
21878;SDS011;27908;42.708;23.278;2023-08-17T04:00:50;14.50;;;4.30;;
21878;SDS011;27908;42.708;23.278;2023-08-17T04:03:16;10.63;;;4.22;;
21878;SDS011;27908;42.708;23.278;2023-08-17T04:05:42;13.57;;;4.47;;
21878;SDS011;27908;42.708;23.278;2023-08-17T04:08:07;11.27;;;4.43;;
21878;SDS011;27908;42.708;23.278;2023-08-17T04:10:33;13.70;;;4.87;;
21878;SDS011;27908;42.708;23.278;2023-08-17T04:12:58;12.30;;;4.65;;
21878;SDS011;27908;42.708;23.278;2023-08-17T04:15:24;9.93;;;4.40;;
21878;SDS011;27908;42.708;23.278;2023-08-17T04:17:49;9.37;;;4.47;;
21878;SDS011;27908;42.708;23.278;2023-08-17T04:20:15;9.53;;;4.23;;
21878;SDS011;27908;42.708;23.278;2023-08-17T04:22:40;12.23;;;4.47;;
21878;SDS011;27908;42.708;23.278;2023-08-17T04:25:06;10.97;;;4.03;;
21878;SDS011;27908;42.708;23.278;2023-08-17T04:27:32;8.82;;;4.40;;
21878;SDS011;27908;42.708;23.278;2023-08-17T04:29:58;12.95;;;4.63;;
21878;SDS011;27908;42.708;23.278;2023-08-17T04:32:25;10.47;;;4.40;;
21878;SDS011;27908;42.708;23.278;2023-08-17T04:34:50;11.63;;;4.32;;
21878;SDS011;27908;42.708;23.278;2023-08-17T04:37:15;13.83;;;4.53;;
21878;SDS011;27908;42.708;23.278;2023-08-17T04:39:41;12.13;;;4.83;;
21878;SDS011;27908;42.708;23.278;2023-08-17T04:42:08;11.68;;;4.93;;
21878;SDS011;27908;42.708;23.278;2023-08-17T04:44:34;12.90;;;4.40;;
21878;SDS011;27908;42.708;23.278;2023-08-17T04:46:59;12.67;;;4.33;;
21878;SDS011;27908;42.708;23.278;2023-08-17T04:49:25;9.53;;;4.50;;
21878;SDS011;27908;42.708;23.278;2023-08-17T04:51:51;12.82;;;4.10;;
21878;SDS011;27908;42.708;23.278;2023-08-17T04:54:17;9.10;;;3.88;;
21878;SDS011;27908;42.708;23.278;2023-08-17T04:56:43;11.03;;;3.87;;
21878;SDS011;27908;42.708;23.278;2023-08-17T04:59:08;11.07;;;4.20;;
21878;SDS011;27908;42.708;23.278;2023-08-17T05:01:34;15.23;;;4.30;;
21878;SDS011;27908;42.708;23.278;2023-08-17T05:04:00;9.13;;;3.40;;
21878;SDS011;27908;42.708;23.278;2023-08-17T05:06:27;12.47;;;4.20;;
21878;SDS011;27908;42.708;23.278;2023-08-17T05:08:53;8.73;;;4.30;;
21878;SDS011;27908;42.708;23.278;2023-08-17T05:11:18;10.17;;;3.73;;
21878;SDS011;27908;42.708;23.278;2023-08-17T05:13:44;10.00;;;2.90;;
21878;SDS011;27908;42.708;23.278;2023-08-17T05:16:09;10.70;;;3.73;;
21878;SDS011;27908;42.708;23.278;2023-08-17T05:18:35;9.43;;;3.47;;
21878;SDS011;27908;42.708;23.278;2023-08-17T05:21:00;12.13;;;3.63;;
21878;SDS011;27908;42.708;23.278;2023-08-17T05:23:26;10.17;;;3.47;;
21878;SDS011;27908;42.708;23.278;2023-08-17T05:25:51;9.43;;;3.60;;
21878;SDS011;27908;42.708;23.278;2023-08-17T05:28:17;8.90;;;3.40;;
21878;SDS011;27908;42.708;23.278;2023-08-17T05:30:42;8.48;;;3.30;;
21878;SDS011;27908;42.708;23.278;2023-08-17T05:33:08;11.50;;;3.40;;
21878;SDS011;27908;42.708;23.278;2023-08-17T05:35:33;10.68;;;3.00;;
21878;SDS011;27908;42.708;23.278;2023-08-17T05:37:59;11.33;;;3.40;;
21878;SDS011;27908;42.708;23.278;2023-08-17T05:40:25;8.60;;;3.40;;
21878;SDS011;27908;42.708;23.278;2023-08-17T05:42:50;14.00;;;4.57;;
21878;SDS011;27908;42.708;23.278;2023-08-17T05:45:16;9.17;;;4.07;;
21878;SDS011;27908;42.708;23.278;2023-08-17T05:47:41;8.40;;;3.25;;
21878;SDS011;27908;42.708;23.278;2023-08-17T05:50:07;10.30;;;3.73;;
21878;SDS011;27908;42.708;23.278;2023-08-17T05:52:32;9.93;;;3.80;;
21878;SDS011;27908;42.708;23.278;2023-08-17T05:54:58;9.40;;;4.18;;
21878;SDS011;27908;42.708;23.278;2023-08-17T05:57:23;11.40;;;3.90;;
21878;SDS011;27908;42.708;23.278;2023-08-17T05:59:49;9.10;;;4.23;;
21878;SDS011;27908;42.708;23.278;2023-08-17T06:02:14;13.02;;;4.00;;
21878;SDS011;27908;42.708;23.278;2023-08-17T06:04:40;13.87;;;4.70;;
21878;SDS011;27908;42.708;23.278;2023-08-17T06:07:05;11.37;;;4.70;;
21878;SDS011;27908;42.708;23.278;2023-08-17T06:09:31;13.77;;;4.90;;
21878;SDS011;27908;42.708;23.278;2023-08-17T06:11:57;13.47;;;5.40;;
21878;SDS011;27908;42.708;23.278;2023-08-17T06:14:22;10.75;;;5.15;;
21878;SDS011;27908;42.708;23.278;2023-08-17T06:16:48;13.07;;;5.50;;
21878;SDS011;27908;42.708;23.278;2023-08-17T06:19:13;13.27;;;5.27;;
21878;SDS011;27908;42.708;23.278;2023-08-17T06:21:38;11.50;;;4.80;;
21878;SDS011;27908;42.708;23.278;2023-08-17T06:24:04;10.82;;;5.20;;
21878;SDS011;27908;42.708;23.278;2023-08-17T06:26:30;11.13;;;5.30;;
21878;SDS011;27908;42.708;23.278;2023-08-17T06:28:55;19.30;;;4.97;;
21878;SDS011;27908;42.708;23.278;2023-08-17T06:31:21;9.43;;;4.32;;
21878;SDS011;27908;42.708;23.278;2023-08-17T06:33:48;10.43;;;5.00;;
21878;SDS011;27908;42.708;23.278;2023-08-17T06:36:13;12.33;;;5.33;;
21878;SDS011;27908;42.708;23.278;2023-08-17T06:38:41;12.77;;;4.95;;
21878;SDS011;27908;42.708;23.278;2023-08-17T06:41:07;11.20;;;4.90;;
21878;SDS011;27908;42.708;23.278;2023-08-17T06:43:33;11.55;;;4.90;;
21878;SDS011;27908;42.708;23.278;2023-08-17T06:45:58;12.47;;;4.93;;
21878;SDS011;27908;42.708;23.278;2023-08-17T06:48:25;12.85;;;5.15;;
21878;SDS011;27908;42.708;23.278;2023-08-17T06:50:50;11.33;;;5.17;;
21878;SDS011;27908;42.708;23.278;2023-08-17T06:53:16;13.33;;;4.80;;
21878;SDS011;27908;42.708;23.278;2023-08-17T06:55:41;14.90;;;5.50;;
21878;SDS011;27908;42.708;23.278;2023-08-17T06:58:07;11.18;;;5.00;;
21878;SDS011;27908;42.708;23.278;2023-08-17T07:00:32;11.13;;;4.60;;
21878;SDS011;27908;42.708;23.278;2023-08-17T07:03:00;11.77;;;4.80;;
21878;SDS011;27908;42.708;23.278;2023-08-17T07:05:25;12.17;;;4.67;;
21878;SDS011;27908;42.708;23.278;2023-08-17T07:07:51;16.63;;;5.75;;
21878;SDS011;27908;42.708;23.278;2023-08-17T07:10:18;12.27;;;5.00;;
21878;SDS011;27908;42.708;23.278;2023-08-17T07:12:44;11.68;;;5.40;;
21878;SDS011;27908;42.708;23.278;2023-08-17T07:15:09;11.87;;;4.87;;
21878;SDS011;27908;42.708;23.278;2023-08-17T07:17:35;11.20;;;5.00;;
21878;SDS011;27908;42.708;23.278;2023-08-17T07:20:02;8.38;;;3.90;;
21878;SDS011;27908;42.708;23.278;2023-08-17T07:22:28;9.38;;;4.25;;
21878;SDS011;27908;42.708;23.278;2023-08-17T07:24:54;9.45;;;4.25;;
21878;SDS011;27908;42.708;23.278;2023-08-17T07:27:19;8.57;;;4.07;;
21878;SDS011;27908;42.708;23.278;2023-08-17T07:29:45;12.13;;;4.20;;
21878;SDS011;27908;42.708;23.278;2023-08-17T07:32:10;10.87;;;4.37;;
21878;SDS011;27908;42.708;23.278;2023-08-17T07:34:36;10.32;;;4.00;;
21878;SDS011;27908;42.708;23.278;2023-08-17T07:37:03;8.67;;;3.87;;
21878;SDS011;27908;42.708;23.278;2023-08-17T07:39:29;8.85;;;3.75;;
21878;SDS011;27908;42.708;23.278;2023-08-17T07:41:55;8.87;;;3.53;;
21878;SDS011;27908;42.708;23.278;2023-08-17T07:44:21;8.87;;;4.20;;
21878;SDS011;27908;42.708;23.278;2023-08-17T07:46:46;8.77;;;3.67;;
21878;SDS011;27908;42.708;23.278;2023-08-17T07:49:11;9.67;;;3.90;;
21878;SDS011;27908;42.708;23.278;2023-08-17T07:51:37;8.30;;;3.55;;
21878;SDS011;27908;42.708;23.278;2023-08-17T07:54:02;9.50;;;3.57;;
21878;SDS011;27908;42.708;23.278;2023-08-17T07:56:28;7.53;;;3.60;;
21878;SDS011;27908;42.708;23.278;2023-08-17T07:58:53;10.93;;;3.93;;
21878;SDS011;27908;42.708;23.278;2023-08-17T08:01:19;9.77;;;3.70;;
21878;SDS011;27908;42.708;23.278;2023-08-17T08:03:45;7.63;;;3.10;;
21878;SDS011;27908;42.708;23.278;2023-08-17T08:06:10;9.93;;;3.30;;
21878;SDS011;27908;42.708;23.278;2023-08-17T08:08:36;8.50;;;3.50;;
21878;SDS011;27908;42.708;23.278;2023-08-17T08:11:01;8.80;;;3.57;;
21878;SDS011;27908;42.708;23.278;2023-08-17T08:13:29;8.23;;;3.43;;
21878;SDS011;27908;42.708;23.278;2023-08-17T08:15:55;9.63;;;3.17;;
21878;SDS011;27908;42.708;23.278;2023-08-17T08:18:20;8.23;;;3.20;;
21878;SDS011;27908;42.708;23.278;2023-08-17T08:20:45;9.00;;;3.23;;
21878;SDS011;27908;42.708;23.278;2023-08-17T08:23:11;5.90;;;2.50;;
21878;SDS011;27908;42.708;23.278;2023-08-17T08:25:36;8.60;;;2.90;;
21878;SDS011;27908;42.708;23.278;2023-08-17T08:28:02;11.97;;;2.80;;
21878;SDS011;27908;42.708;23.278;2023-08-17T08:30:27;7.93;;;2.77;;
21878;SDS011;27908;42.708;23.278;2023-08-17T08:32:53;7.00;;;2.63;;
21878;SDS011;27908;42.708;23.278;2023-08-17T08:35:20;7.90;;;3.20;;
21878;SDS011;27908;42.708;23.278;2023-08-17T08:37:47;8.00;;;2.90;;
21878;SDS011;27908;42.708;23.278;2023-08-17T08:40:12;8.90;;;2.60;;
21878;SDS011;27908;42.708;23.278;2023-08-17T08:42:40;10.87;;;2.93;;
21878;SDS011;27908;42.708;23.278;2023-08-17T08:45:06;12.23;;;2.90;;
21878;SDS011;27908;42.708;23.278;2023-08-17T08:47:31;14.00;;;3.13;;
21878;SDS011;27908;42.708;23.278;2023-08-17T08:50:01;8.95;;;2.75;;
21878;SDS011;27908;42.708;23.278;2023-08-17T08:52:32;7.53;;;2.70;;
21878;SDS011;27908;42.708;23.278;2023-08-17T08:54:58;8.43;;;3.05;;
21878;SDS011;27908;42.708;23.278;2023-08-17T08:57:29;8.52;;;2.88;;
21878;SDS011;27908;42.708;23.278;2023-08-17T08:59:55;8.77;;;2.63;;
21878;SDS011;27908;42.708;23.278;2023-08-17T09:02:22;8.75;;;2.85;;
21878;SDS011;27908;42.708;23.278;2023-08-17T09:04:47;9.10;;;2.77;;
21878;SDS011;27908;42.708;23.278;2023-08-17T09:07:13;9.70;;;2.88;;
21878;SDS011;27908;42.708;23.278;2023-08-17T09:09:39;11.23;;;3.13;;
21878;SDS011;27908;42.708;23.278;2023-08-17T09:12:07;7.93;;;2.97;;
21878;SDS011;27908;42.708;23.278;2023-08-17T09:14:34;7.57;;;2.83;;
21878;SDS011;27908;42.708;23.278;2023-08-17T09:17:02;8.40;;;3.05;;
21878;SDS011;27908;42.708;23.278;2023-08-17T09:19:28;8.15;;;2.80;;
21878;SDS011;27908;42.708;23.278;2023-08-17T09:21:53;8.93;;;2.90;;
21878;SDS011;27908;42.708;23.278;2023-08-17T09:24:18;7.07;;;2.70;;
21878;SDS011;27908;42.708;23.278;2023-08-17T09:26:44;8.20;;;2.53;;
21878;SDS011;27908;42.708;23.278;2023-08-17T09:29:16;9.10;;;3.27;;
21878;SDS011;27908;42.708;23.278;2023-08-17T09:31:48;8.38;;;2.60;;
21878;SDS011;27908;42.708;23.278;2023-08-17T09:34:14;8.32;;;2.67;;
21878;SDS011;27908;42.708;23.278;2023-08-17T09:36:40;9.27;;;2.77;;
21878;SDS011;27908;42.708;23.278;2023-08-17T09:39:06;7.13;;;2.80;;
21878;SDS011;27908;42.708;23.278;2023-08-17T09:41:37;7.40;;;2.90;;
21878;SDS011;27908;42.708;23.278;2023-08-17T09:44:04;8.43;;;2.28;;
21878;SDS011;27908;42.708;23.278;2023-08-17T09:46:30;10.27;;;2.73;;
21878;SDS011;27908;42.708;23.278;2023-08-17T09:48:56;7.72;;;2.47;;
21878;SDS011;27908;42.708;23.278;2023-08-17T09:51:21;8.93;;;2.73;;
21878;SDS011;27908;42.708;23.278;2023-08-17T09:53:51;7.23;;;2.70;;
21878;SDS011;27908;42.708;23.278;2023-08-17T09:56:17;7.50;;;2.90;;
21878;SDS011;27908;42.708;23.278;2023-08-17T09:58:46;8.20;;;3.28;;
21878;SDS011;27908;42.708;23.278;2023-08-17T10:01:12;7.23;;;2.33;;
21878;SDS011;27908;42.708;23.278;2023-08-17T10:03:39;7.63;;;2.55;;
21878;SDS011;27908;42.708;23.278;2023-08-17T10:06:11;9.52;;;2.67;;
21878;SDS011;27908;42.708;23.278;2023-08-17T10:08:40;6.80;;;2.38;;
21878;SDS011;27908;42.708;23.278;2023-08-17T10:11:08;7.63;;;2.25;;
21878;SDS011;27908;42.708;23.278;2023-08-17T10:19:05;7.22;;;2.03;;
21878;SDS011;27908;42.708;23.278;2023-08-17T10:21:43;11.15;;;2.20;;
21878;SDS011;27908;42.708;23.278;2023-08-17T10:24:13;8.65;;;1.83;;
21878;SDS011;27908;42.708;23.278;2023-08-17T10:26:39;7.60;;;2.33;;
21878;SDS011;27908;42.708;23.278;2023-08-17T10:29:04;10.03;;;2.03;;
21878;SDS011;27908;42.708;23.278;2023-08-17T10:31:33;6.35;;;2.00;;
21878;SDS011;27908;42.708;23.278;2023-08-17T10:34:00;9.57;;;2.00;;
21878;SDS011;27908;42.708;23.278;2023-08-17T10:36:27;7.68;;;2.13;;
21878;SDS011;27908;42.708;23.278;2023-08-17T10:41:48;6.17;;;1.90;;
21878;SDS011;27908;42.708;23.278;2023-08-17T10:44:15;6.72;;;2.17;;
21878;SDS011;27908;42.708;23.278;2023-08-17T10:47:10;8.38;;;2.28;;
21878;SDS011;27908;42.708;23.278;2023-08-17T10:49:43;9.30;;;2.10;;
21878;SDS011;27908;42.708;23.278;2023-08-17T10:52:09;8.53;;;2.03;;
21878;SDS011;27908;42.708;23.278;2023-08-17T10:54:38;8.95;;;2.15;;
21878;SDS011;27908;42.708;23.278;2023-08-17T11:02:35;7.93;;;2.38;;
21878;SDS011;27908;42.708;23.278;2023-08-17T11:05:02;7.93;;;2.60;;
21878;SDS011;27908;42.708;23.278;2023-08-17T11:07:37;7.07;;;2.72;;
21878;SDS011;27908;42.708;23.278;2023-08-17T11:12:57;8.63;;;2.70;;
21878;SDS011;27908;42.708;23.278;2023-08-17T11:15:34;6.95;;;2.20;;
21878;SDS011;27908;42.708;23.278;2023-08-17T11:18:05;9.20;;;2.50;;
21878;SDS011;27908;42.708;23.278;2023-08-17T11:20:32;6.20;;;2.30;;
21878;SDS011;27908;42.708;23.278;2023-08-17T11:22:58;9.07;;;2.30;;
21878;SDS011;27908;42.708;23.278;2023-08-17T11:25:25;7.88;;;2.50;;
21878;SDS011;27908;42.708;23.278;2023-08-17T11:27:53;6.63;;;2.10;;
21878;SDS011;27908;42.708;23.278;2023-08-17T11:30:20;9.43;;;2.43;;
21878;SDS011;27908;42.708;23.278;2023-08-17T11:32:47;7.85;;;2.40;;
21878;SDS011;27908;42.708;23.278;2023-08-17T11:35:12;8.98;;;3.10;;
21878;SDS011;27908;42.708;23.278;2023-08-17T11:37:38;7.03;;;2.80;;
21878;SDS011;27908;42.708;23.278;2023-08-17T11:40:03;9.07;;;3.00;;
21878;SDS011;27908;42.708;23.278;2023-08-17T11:42:29;10.77;;;3.10;;
21878;SDS011;27908;42.708;23.278;2023-08-17T11:44:55;10.53;;;3.20;;
21878;SDS011;27908;42.708;23.278;2023-08-17T11:47:21;8.48;;;2.50;;
21878;SDS011;27908;42.708;23.278;2023-08-17T11:49:50;6.03;;;2.03;;
21878;SDS011;27908;42.708;23.278;2023-08-17T11:52:15;7.40;;;2.28;;
21878;SDS011;27908;42.708;23.278;2023-08-17T11:54:41;7.72;;;2.90;;
21878;SDS011;27908;42.708;23.278;2023-08-17T11:57:07;9.97;;;2.70;;
21878;SDS011;27908;42.708;23.278;2023-08-17T11:59:32;6.63;;;2.95;;
21878;SDS011;27908;42.708;23.278;2023-08-17T12:01:58;8.93;;;2.70;;
21878;SDS011;27908;42.708;23.278;2023-08-17T12:04:25;8.47;;;2.40;;
21878;SDS011;27908;42.708;23.278;2023-08-17T12:06:51;7.65;;;2.83;;
21878;SDS011;27908;42.708;23.278;2023-08-17T12:09:17;8.50;;;3.50;;
21878;SDS011;27908;42.708;23.278;2023-08-17T12:11:44;6.90;;;2.85;;
21878;SDS011;27908;42.708;23.278;2023-08-17T12:14:11;10.73;;;3.17;;
21878;SDS011;27908;42.708;23.278;2023-08-17T12:16:49;8.27;;;3.10;;
21878;SDS011;27908;42.708;23.278;2023-08-17T12:19:15;9.48;;;3.13;;
21878;SDS011;27908;42.708;23.278;2023-08-17T12:21:40;9.17;;;4.53;;
21878;SDS011;27908;42.708;23.278;2023-08-17T12:24:08;9.75;;;3.60;;
21878;SDS011;27908;42.708;23.278;2023-08-17T12:26:34;10.30;;;4.10;;
21878;SDS011;27908;42.708;23.278;2023-08-17T12:29:00;8.63;;;3.40;;
21878;SDS011;27908;42.708;23.278;2023-08-17T12:31:30;9.45;;;3.70;;
21878;SDS011;27908;42.708;23.278;2023-08-17T12:33:56;9.93;;;3.50;;
21878;SDS011;27908;42.708;23.278;2023-08-17T12:36:22;6.95;;;2.75;;
21878;SDS011;27908;42.708;23.278;2023-08-17T12:38:47;9.33;;;4.03;;
21878;SDS011;27908;42.708;23.278;2023-08-17T12:41:13;12.02;;;5.07;;
21878;SDS011;27908;42.708;23.278;2023-08-17T12:43:38;9.27;;;4.43;;
21878;SDS011;27908;42.708;23.278;2023-08-17T12:46:04;9.80;;;3.90;;
21878;SDS011;27908;42.708;23.278;2023-08-17T12:48:29;8.77;;;2.80;;
21878;SDS011;27908;42.708;23.278;2023-08-17T12:50:55;8.00;;;3.63;;
21878;SDS011;27908;42.708;23.278;2023-08-17T12:53:23;8.35;;;3.58;;
21878;SDS011;27908;42.708;23.278;2023-08-17T12:55:48;7.87;;;3.23;;
21878;SDS011;27908;42.708;23.278;2023-08-17T12:58:14;10.95;;;3.60;;
21878;SDS011;27908;42.708;23.278;2023-08-17T13:00:39;8.20;;;4.40;;
21878;SDS011;27908;42.708;23.278;2023-08-17T13:03:05;11.20;;;3.77;;
21878;SDS011;27908;42.708;23.278;2023-08-17T13:05:30;7.90;;;3.45;;
21878;SDS011;27908;42.708;23.278;2023-08-17T13:07:56;9.13;;;3.10;;
21878;SDS011;27908;42.708;23.278;2023-08-17T13:10:21;9.40;;;3.10;;
21878;SDS011;27908;42.708;23.278;2023-08-17T13:12:47;7.80;;;3.60;;
21878;SDS011;27908;42.708;23.278;2023-08-17T13:15:12;8.67;;;3.50;;
21878;SDS011;27908;42.708;23.278;2023-08-17T13:17:38;10.63;;;3.40;;
21878;SDS011;27908;42.708;23.278;2023-08-17T13:20:04;10.43;;;3.43;;
21878;SDS011;27908;42.708;23.278;2023-08-17T13:22:31;10.30;;;5.40;;
21878;SDS011;27908;42.708;23.278;2023-08-17T13:24:57;10.73;;;3.30;;
21878;SDS011;27908;42.708;23.278;2023-08-17T13:27:22;11.97;;;6.07;;
21878;SDS011;27908;42.708;23.278;2023-08-17T13:29:48;16.20;;;7.03;;
21878;SDS011;27908;42.708;23.278;2023-08-17T13:32:14;10.57;;;3.97;;
21878;SDS011;27908;42.708;23.278;2023-08-17T13:34:39;7.80;;;3.57;;
21878;SDS011;27908;42.708;23.278;2023-08-17T13:37:05;7.20;;;3.10;;
21878;SDS011;27908;42.708;23.278;2023-08-17T13:39:30;9.25;;;3.10;;
21878;SDS011;27908;42.708;23.278;2023-08-17T13:41:56;8.87;;;3.47;;
21878;SDS011;27908;42.708;23.278;2023-08-17T13:44:21;12.53;;;6.57;;
21878;SDS011;27908;42.708;23.278;2023-08-17T13:46:46;10.87;;;3.90;;
21878;SDS011;27908;42.708;23.278;2023-08-17T13:49:12;8.00;;;3.10;;
21878;SDS011;27908;42.708;23.278;2023-08-17T13:51:37;7.53;;;3.43;;
21878;SDS011;27908;42.708;23.278;2023-08-17T13:54:03;10.87;;;3.13;;
21878;SDS011;27908;42.708;23.278;2023-08-17T13:56:28;9.80;;;3.55;;
21878;SDS011;27908;42.708;23.278;2023-08-17T13:58:54;9.73;;;3.07;;
21878;SDS011;27908;42.708;23.278;2023-08-17T14:01:19;8.17;;;3.80;;
21878;SDS011;27908;42.708;23.278;2023-08-17T14:03:44;8.07;;;3.43;;
21878;SDS011;27908;42.708;23.278;2023-08-17T14:06:10;11.13;;;3.80;;
21878;SDS011;27908;42.708;23.278;2023-08-17T14:08:35;11.40;;;5.00;;
21878;SDS011;27908;42.708;23.278;2023-08-17T14:11:01;8.97;;;3.23;;
21878;SDS011;27908;42.708;23.278;2023-08-17T14:13:26;8.77;;;2.80;;
21878;SDS011;27908;42.708;23.278;2023-08-17T14:15:52;9.10;;;2.70;;
21878;SDS011;27908;42.708;23.278;2023-08-17T14:18:20;7.47;;;2.80;;
21878;SDS011;27908;42.708;23.278;2023-08-17T14:20:46;7.13;;;3.45;;
21878;SDS011;27908;42.708;23.278;2023-08-17T14:23:11;8.37;;;2.80;;
21878;SDS011;27908;42.708;23.278;2023-08-17T14:25:37;21.00;;;9.67;;
21878;SDS011;27908;42.708;23.278;2023-08-17T14:28:03;8.37;;;3.63;;
21878;SDS011;27908;42.708;23.278;2023-08-17T14:30:30;11.48;;;3.67;;
21878;SDS011;27908;42.708;23.278;2023-08-17T14:32:55;16.63;;;7.90;;
21878;SDS011;27908;42.708;23.278;2023-08-17T14:35:21;10.73;;;4.13;;
21878;SDS011;27908;42.708;23.278;2023-08-17T14:37:46;8.17;;;3.20;;
21878;SDS011;27908;42.708;23.278;2023-08-17T14:40:12;11.10;;;5.87;;
21878;SDS011;27908;42.708;23.278;2023-08-17T14:42:38;9.10;;;3.97;;